createdAt,value
2023-05-01T00:01:31.867Z,101857.09
2023-05-01T00:04:00.123Z,101854.59
2023-05-01T00:06:26.906Z,101848.25
2023-05-01T00:08:53.545Z,101852.91
2023-05-01T00:11:20.170Z,101851.25
2023-05-01T00:13:46.834Z,101848.69
2023-05-01T00:16:13.904Z,101846.97
2023-05-01T00:18:40.576Z,101852.66
2023-05-01T00:21:08.699Z,101850.28
2023-05-01T00:23:35.421Z,101844.13
2023-05-01T00:26:02.286Z,101852.31
2023-05-01T00:28:28.924Z,101853.19
2023-05-01T00:30:56.916Z,101847.81
2023-05-01T00:33:23.637Z,101838.97
2023-05-01T00:35:50.252Z,101842.63
2023-05-01T00:38:18.461Z,101840.16
2023-05-01T00:40:46.296Z,101841.31
2023-05-01T00:43:13.404Z,101838.84
2023-05-01T00:45:43.556Z,101830.97
2023-05-01T00:48:10.474Z,101825.81
2023-05-01T00:50:37.555Z,101828.72
2023-05-01T00:53:04.326Z,101827.94
2023-05-01T00:55:32.947Z,101822.66
2023-05-01T00:58:01.035Z,101822.78
2023-05-01T01:00:27.663Z,101819.31
2023-05-01T01:02:54.323Z,101813.28
2023-05-01T01:05:24.381Z,101815.25
2023-05-01T01:07:59.113Z,101814.56
2023-05-01T01:10:35.642Z,101813.03
2023-05-01T01:13:08.206Z,101814.97
2023-05-01T01:15:39.932Z,101814.34
2023-05-01T01:18:12.296Z,101810.97
2023-05-01T01:20:44.585Z,101803.03
2023-05-01T01:23:51.122Z,101807.75
2023-05-01T01:26:50.036Z,101809.00
2023-05-01T01:29:49.885Z,101809.22
2023-05-01T01:32:42.786Z,101808.44
2023-05-01T01:35:18.384Z,101812.28
2023-05-01T01:37:51.540Z,101805.41
2023-05-01T01:40:22.424Z,101802.06
2023-05-01T01:42:55.307Z,101796.88
2023-05-01T01:45:23.948Z,101797.16
2023-05-01T01:47:53.711Z,101795.75
2023-05-01T01:50:26.570Z,101796.94
2023-05-01T01:52:54.888Z,101792.72
2023-05-01T01:55:25.347Z,101790.22
2023-05-01T01:57:53.301Z,101788.59
2023-05-01T02:00:21.651Z,101786.13
2023-05-01T02:02:49.915Z,101780.06
2023-05-01T02:05:19.436Z,101781.09
2023-05-01T02:07:50.089Z,101774.13
2023-05-01T02:10:18.726Z,101771.59
2023-05-01T02:12:48.041Z,101770.94
2023-05-01T02:15:16.603Z,101766.66
2023-05-01T02:17:43.476Z,101772.41
2023-05-01T02:20:12.121Z,101769.91
2023-05-01T02:22:39.883Z,101761.09
2023-05-01T02:25:11.064Z,101761.38
2023-05-01T02:27:41.030Z,101754.56
2023-05-01T02:30:08.697Z,101755.66
2023-05-01T02:32:35.587Z,101756.81
2023-05-01T02:35:02.343Z,101753.34
2023-05-01T02:37:29.407Z,101757.09
2023-05-01T02:39:56.312Z,101750.28
2023-05-01T02:42:26.437Z,101743.38
2023-05-01T02:44:57.382Z,101741.00
2023-05-01T02:47:27.046Z,101736.59
2023-05-01T02:49:54.974Z,101738.59
2023-05-01T02:52:22.149Z,101736.13
2023-05-01T02:54:50.342Z,101727.41
2023-05-01T02:57:18.341Z,101726.75
2023-05-01T02:59:46.347Z,101724.13
2023-05-01T03:02:13.111Z,101715.31
2023-05-01T03:04:39.811Z,101721.75
2023-05-01T03:07:06.507Z,101721.81
2023-05-01T03:09:33.042Z,101711.31
2023-05-01T03:11:59.710Z,101710.56
2023-05-01T03:14:26.336Z,101705.28
2023-05-01T03:16:54.800Z,101705.47
2023-05-01T03:19:21.404Z,101708.25
2023-05-01T03:21:48.029Z,101702.09
2023-05-01T03:24:14.634Z,101704.03
2023-05-01T03:26:41.247Z,101705.91
2023-05-01T03:29:07.813Z,101713.09
2023-05-01T03:31:34.588Z,101704.22
2023-05-01T03:34:02.547Z,101705.16
2023-05-01T03:36:29.103Z,101703.44
2023-05-01T03:38:55.883Z,101704.38
2023-05-01T03:41:22.540Z,101702.78
2023-05-01T03:43:49.100Z,101713.50
2023-05-01T03:46:15.764Z,101703.81
2023-05-01T03:48:42.542Z,101706.59
2023-05-01T03:51:10.601Z,101701.25
2023-05-01T03:53:37.223Z,101701.25
2023-05-01T03:56:04.246Z,101702.19
2023-05-01T03:58:30.885Z,101696.81
2023-05-01T04:00:57.803Z,101699.44
2023-05-01T04:03:24.634Z,101696.53
2023-05-01T04:05:51.376Z,101699.03
2023-05-01T04:08:19.477Z,101693.50
2023-05-01T04:10:46.052Z,101689.47
2023-05-01T04:13:12.690Z,101689.94
2023-05-01T04:15:39.354Z,101685.06
2023-05-01T04:18:06.056Z,101690.88
2023-05-01T04:20:32.744Z,101686.88
2023-05-01T04:22:59.355Z,101685.22
2023-05-01T04:25:27.319Z,101675.97
2023-05-01T04:27:53.965Z,101673.69
2023-05-01T04:30:20.603Z,101668.44
2023-05-01T04:32:47.281Z,101666.50
2023-05-01T04:35:14.083Z,101656.00
2023-05-01T04:37:40.770Z,101653.88
2023-05-01T04:40:10.569Z,101652.59
2023-05-01T04:42:39.542Z,101650.09
2023-05-01T04:45:06.968Z,101647.75
2023-05-01T04:47:33.622Z,101650.03
2023-05-01T04:50:00.633Z,101646.34
2023-05-01T04:52:27.271Z,101647.47
2023-05-01T04:54:54.008Z,101646.22
2023-05-01T04:57:20.589Z,101641.97
2023-05-01T04:59:48.651Z,101638.63
2023-05-01T05:02:15.374Z,101639.84
2023-05-01T05:04:42.061Z,101647.50
2023-05-01T05:07:08.718Z,101642.38
2023-05-01T05:09:35.474Z,101628.69
2023-05-01T05:12:02.273Z,101637.53
2023-05-01T05:14:28.991Z,101640.84
2023-05-01T05:16:57.298Z,101625.81
2023-05-01T05:19:24.071Z,101626.09
2023-05-01T05:21:50.729Z,101622.09
2023-05-01T05:24:17.381Z,101625.25
2023-05-01T05:26:44.039Z,101626.38
2023-05-01T05:29:10.690Z,101618.97
2023-05-01T05:31:37.394Z,101621.84
2023-05-01T05:34:05.424Z,101611.00
2023-05-01T05:36:32.099Z,101610.13
2023-05-01T05:38:59.676Z,101604.84
2023-05-01T05:41:26.395Z,101602.13
2023-05-01T05:43:52.985Z,101597.53
2023-05-01T05:46:19.679Z,101598.50
2023-05-01T05:48:46.333Z,101597.63
2023-05-01T05:51:14.363Z,101586.63
2023-05-01T05:53:40.937Z,101590.44
2023-05-01T05:56:07.961Z,101594.00
2023-05-01T05:58:34.576Z,101589.38
2023-05-01T06:01:01.199Z,101591.63
2023-05-01T06:03:27.989Z,101589.66
2023-05-01T06:05:55.048Z,101583.31
2023-05-01T06:08:23.180Z,101584.44
2023-05-01T06:10:49.900Z,101584.25
2023-05-01T06:13:16.562Z,101595.69
2023-05-01T06:15:43.294Z,101590.19
2023-05-01T06:18:10.197Z,101587.72
2023-05-01T06:20:36.897Z,101579.81
2023-05-01T06:23:03.580Z,101577.47
2023-05-01T06:25:31.680Z,101582.44
2023-05-01T06:27:58.422Z,101578.13
2023-05-01T06:30:25.105Z,101587.59
2023-05-01T06:32:51.747Z,101581.06
2023-05-01T06:35:18.513Z,101572.97
2023-05-01T06:37:45.167Z,101584.94
2023-05-01T06:40:12.018Z,101578.34
2023-05-01T06:42:40.486Z,101572.41
2023-05-01T06:45:08.281Z,101572.63
2023-05-01T06:47:35.316Z,101573.00
2023-05-01T06:50:05.070Z,101570.00
2023-05-01T06:52:32.348Z,101573.81
2023-05-01T06:54:59.141Z,101563.13
2023-05-01T06:57:25.854Z,101569.66
2023-05-01T06:59:54.147Z,101562.41
2023-05-01T07:02:21.244Z,101562.81
2023-05-01T07:04:48.116Z,101566.47
2023-05-01T07:07:14.915Z,101563.34
2023-05-01T07:09:41.647Z,101556.41
2023-05-01T07:12:08.391Z,101558.50
2023-05-01T07:14:35.426Z,101552.44
2023-05-01T07:17:03.799Z,101552.97
2023-05-01T07:19:30.533Z,101544.66
2023-05-01T07:21:57.193Z,101547.53
2023-05-01T07:24:23.887Z,101541.41
2023-05-01T07:26:50.530Z,101540.56
2023-05-01T07:29:17.434Z,101540.72
2023-05-01T07:31:44.210Z,101530.34
2023-05-01T07:34:12.294Z,101530.84
2023-05-01T07:36:38.941Z,101529.31
2023-05-01T07:39:05.586Z,101520.41
2023-05-01T07:41:32.155Z,101529.47
2023-05-01T07:43:58.784Z,101529.13
2023-05-01T07:46:25.572Z,101526.38
2023-05-01T07:48:52.238Z,101521.44
2023-05-01T07:51:20.378Z,101511.88
2023-05-01T07:53:47.101Z,101518.00
2023-05-01T07:56:13.775Z,101510.16
2023-05-01T07:58:40.986Z,101513.19
2023-05-01T08:01:07.984Z,101503.63
2023-05-01T08:03:35.016Z,101504.81
2023-05-01T08:06:01.954Z,101495.22
2023-05-01T08:08:30.006Z,101496.94
2023-05-01T08:10:56.635Z,101491.28
2023-05-01T08:13:23.325Z,101494.81
2023-05-01T08:15:50.067Z,101496.66
2023-05-01T08:18:16.770Z,101485.03
2023-05-01T08:20:43.351Z,101487.88
2023-05-01T08:23:09.948Z,101480.38
2023-05-01T08:25:37.953Z,101484.63
2023-05-01T08:28:04.996Z,101477.38
2023-05-01T08:30:31.669Z,101478.88
2023-05-01T08:32:58.683Z,101474.84
2023-05-01T08:35:25.397Z,101473.09
2023-05-01T08:37:51.994Z,101465.22
2023-05-01T08:40:18.897Z,101472.41
2023-05-01T08:42:46.989Z,101467.22
2023-05-01T08:45:15.463Z,101465.28
2023-05-01T08:47:42.716Z,101462.97
2023-05-01T08:50:10.487Z,101453.84
2023-05-01T08:52:40.128Z,101447.59
2023-05-01T08:55:11.743Z,101441.09
2023-05-01T08:57:39.337Z,101440.53
2023-05-01T09:00:14.803Z,101445.75
2023-05-01T09:02:43.005Z,101430.19
2023-05-01T09:05:10.413Z,101438.97
2023-05-01T09:07:38.756Z,101436.97
2023-05-01T09:10:06.711Z,101427.94
2023-05-01T09:12:34.077Z,101428.13
2023-05-01T09:15:02.983Z,101421.50
2023-05-01T09:17:32.355Z,101416.16
2023-05-01T09:20:02.201Z,101413.38
2023-05-01T09:22:31.491Z,101402.53
2023-05-01T09:24:58.189Z,101407.56
2023-05-01T09:27:25.460Z,101403.31
2023-05-01T09:29:52.214Z,101405.25
2023-05-01T09:32:20.880Z,101389.50
2023-05-01T09:34:50.526Z,101389.81
2023-05-01T09:37:26.402Z,101386.31
2023-05-01T09:40:06.032Z,101386.34
2023-05-01T09:42:33.648Z,101372.06
2023-05-01T09:45:00.706Z,101373.81
2023-05-01T09:47:27.497Z,101373.81
2023-05-01T09:49:56.422Z,101361.78
2023-05-01T09:52:24.916Z,101359.94
2023-05-01T09:55:16.404Z,101354.50
2023-05-01T09:57:44.219Z,101349.06
2023-05-01T10:00:13.102Z,101352.53
2023-05-01T10:02:40.921Z,101344.53
2023-05-01T10:05:10.136Z,101344.97
2023-05-01T10:07:37.433Z,101343.50
2023-05-01T10:10:17.740Z,101334.03
2023-05-01T10:12:44.540Z,101330.03
2023-05-01T10:15:23.846Z,101327.28
2023-05-01T10:17:52.333Z,101323.06
2023-05-01T10:20:20.467Z,101324.94
2023-05-01T10:22:47.116Z,101322.41
2023-05-01T10:25:13.881Z,101317.56
2023-05-01T10:27:41.041Z,101320.94
2023-05-01T10:30:08.671Z,101300.97
2023-05-01T10:32:37.178Z,101303.50
2023-05-01T10:35:09.886Z,101296.53
2023-05-01T10:37:46.323Z,101293.75
2023-05-01T10:40:44.439Z,101296.66
2023-05-01T10:43:15.678Z,101295.41
2023-05-01T10:45:42.904Z,101285.25
2023-05-01T10:48:09.806Z,101284.63
2023-05-01T10:51:09.130Z,101278.66
2023-05-01T10:53:37.391Z,101278.81
2023-05-01T10:56:05.001Z,101272.44
2023-05-01T10:58:57.441Z,101264.56
2023-05-01T11:01:29.051Z,101259.81
2023-05-01T11:03:56.115Z,101256.41
2023-05-01T11:06:22.937Z,101252.34
2023-05-01T11:08:51.355Z,101251.75
2023-05-01T11:11:45.391Z,101236.69
2023-05-01T11:14:12.050Z,101230.31
2023-05-01T11:16:42.809Z,101226.91
2023-05-01T11:19:10.979Z,101225.16
2023-05-01T11:21:39.098Z,101219.06
2023-05-01T11:24:07.512Z,101212.41
2023-05-01T11:26:38.264Z,101214.38
2023-05-01T11:29:06.369Z,101210.97
2023-05-01T11:31:33.414Z,101197.00
2023-05-01T11:34:00.412Z,101210.47
2023-05-01T11:36:28.733Z,101202.44
2023-05-01T11:38:56.550Z,101205.03
2023-05-01T11:41:25.517Z,101196.38
2023-05-01T11:43:53.550Z,101189.34
2023-05-01T11:46:27.232Z,101188.63
2023-05-01T11:48:54.429Z,101184.66
2023-05-01T11:51:21.207Z,101186.66
2023-05-01T11:54:00.222Z,101183.06
2023-05-01T11:56:28.575Z,101168.13
2023-05-01T11:58:56.154Z,101168.88
2023-05-01T12:01:32.815Z,101173.53
2023-05-01T12:03:59.522Z,101164.09
2023-05-01T12:06:35.999Z,101165.00
2023-05-01T12:09:03.066Z,101162.47
2023-05-01T12:11:31.528Z,101152.94
2023-05-01T12:13:58.504Z,101154.94
2023-05-01T12:16:25.444Z,101143.38
2023-05-01T12:18:52.206Z,101143.38
2023-05-01T12:21:18.792Z,101138.19
2023-05-01T12:23:45.511Z,101137.19
2023-05-01T12:26:19.018Z,101135.03
2023-05-01T12:28:58.514Z,101133.63
2023-05-01T12:31:26.638Z,101133.88
2023-05-01T12:33:54.501Z,101119.22
2023-05-01T12:36:22.124Z,101121.50
2023-05-01T12:38:55.552Z,101118.28
2023-05-01T12:41:32.489Z,101114.03
2023-05-01T12:44:00.517Z,101114.66
2023-05-01T12:46:27.699Z,101111.63
2023-05-01T12:48:54.865Z,101105.31
2023-05-01T12:51:22.758Z,101111.91
2023-05-01T12:53:49.473Z,101105.50
2023-05-01T12:56:21.729Z,101099.69
2023-05-01T12:58:48.450Z,101101.59
2023-05-01T13:01:24.858Z,101101.47
2023-05-01T13:03:51.804Z,101102.25
2023-05-01T13:06:18.774Z,101099.00
2023-05-01T13:08:45.453Z,101099.13
2023-05-01T13:11:13.509Z,101097.00
2023-05-01T13:13:40.828Z,101093.59
2023-05-01T13:16:09.476Z,101095.31
2023-05-01T13:18:45.578Z,101088.91
2023-05-01T13:21:13.695Z,101080.41
2023-05-01T13:23:40.459Z,101083.09
2023-05-01T13:26:08.533Z,101069.97
2023-05-01T13:28:36.318Z,101067.69
2023-05-01T13:31:10.458Z,101068.66
2023-05-01T13:33:38.572Z,101069.34
2023-05-01T13:36:17.814Z,101067.22
2023-05-01T13:38:49.515Z,101064.22
2023-05-01T13:41:17.665Z,101064.72
2023-05-01T13:43:44.313Z,101054.72
2023-05-01T13:46:15.701Z,101048.75
2023-05-01T13:48:42.512Z,101051.16
2023-05-01T13:51:11.615Z,101042.97
2023-05-01T13:53:39.449Z,101039.94
2023-05-01T13:56:13.601Z,101037.09
2023-05-01T13:58:40.332Z,101029.09
2023-05-01T14:01:13.985Z,101021.44
2023-05-01T14:03:41.913Z,101018.75
2023-05-01T14:06:12.683Z,101027.81
2023-05-01T14:08:39.471Z,101022.28
2023-05-01T14:11:07.760Z,101013.59
2023-05-01T14:13:35.428Z,101018.28
2023-05-01T14:16:02.499Z,101012.63
2023-05-01T14:18:29.142Z,101010.09
2023-05-01T14:20:55.773Z,101011.25
2023-05-01T14:23:23.733Z,101013.88
2023-05-01T14:25:50.841Z,101007.94
2023-05-01T14:28:17.397Z,101001.69
2023-05-01T14:30:44.128Z,101005.66
2023-05-01T14:33:12.139Z,101009.19
2023-05-01T14:35:47.421Z,100997.41
2023-05-01T14:38:14.786Z,100998.97
2023-05-01T14:40:43.801Z,101006.25
2023-05-01T14:43:13.345Z,101004.56
2023-05-01T14:45:41.309Z,100991.00
2023-05-01T14:48:08.043Z,100986.78
2023-05-01T14:50:34.829Z,100995.91
2023-05-01T14:53:01.472Z,100986.06
2023-05-01T14:55:31.554Z,100989.69
2023-05-01T14:57:59.658Z,100983.44
2023-05-01T15:00:26.530Z,100976.00
2023-05-01T15:02:53.498Z,100984.53
2023-05-01T15:05:20.215Z,100982.84
2023-05-01T15:07:47.294Z,100981.09
2023-05-01T15:10:13.972Z,100986.41
2023-05-01T15:12:40.534Z,100986.41
2023-05-01T15:15:09.928Z,100992.56
2023-05-01T15:17:36.519Z,100975.97
2023-05-01T15:20:03.855Z,100970.44
2023-05-01T15:22:30.473Z,100973.66
2023-05-01T15:24:57.248Z,100977.38
2023-05-01T15:27:24.012Z,100984.84
2023-05-01T15:29:50.661Z,100976.19
2023-05-01T15:32:18.895Z,100984.81
2023-05-01T15:34:45.618Z,100989.34
2023-05-01T15:37:12.389Z,100984.75
2023-05-01T15:39:38.995Z,100981.84
2023-05-01T15:42:05.701Z,100978.69
2023-05-01T15:44:33.216Z,100969.56
2023-05-01T15:47:00.055Z,100964.59
2023-05-01T15:49:28.108Z,100965.50
2023-05-01T15:51:54.789Z,100967.66
2023-05-01T15:54:21.467Z,100965.97
2023-05-01T15:56:48.071Z,100967.28
2023-05-01T15:59:14.654Z,100956.31
2023-05-01T16:01:41.359Z,100966.50
2023-05-01T16:04:08.354Z,100965.44
2023-05-01T16:06:36.531Z,100966.88
2023-05-01T16:09:03.855Z,100961.13
2023-05-01T16:11:30.799Z,100967.72
2023-05-01T16:13:57.867Z,100957.53
2023-05-01T16:16:26.791Z,100965.59
2023-05-01T16:18:54.556Z,100961.34
2023-05-01T16:21:21.842Z,100966.88
2023-05-01T16:23:50.189Z,100951.16
2023-05-01T16:26:22.444Z,100959.22
2023-05-01T16:28:49.299Z,100960.06
2023-05-01T16:31:26.719Z,100956.25
2023-05-01T16:33:54.324Z,100954.78
2023-05-01T16:36:21.275Z,100951.03
2023-05-01T16:38:49.440Z,100952.16
2023-05-01T16:41:17.056Z,100956.88
2023-05-01T16:43:44.764Z,100959.09
2023-05-01T16:46:13.033Z,100961.31
2023-05-01T16:48:40.049Z,100957.16
2023-05-01T16:51:07.188Z,100958.91
2023-05-01T16:53:34.238Z,100962.34
2023-05-01T16:56:02.449Z,100960.72
2023-05-01T16:58:29.257Z,100949.72
2023-05-01T17:00:55.979Z,100957.44
2023-05-01T17:03:22.888Z,100957.28
2023-05-01T17:05:49.602Z,100959.22
2023-05-01T17:08:16.338Z,100955.03
2023-05-01T17:10:43.093Z,100952.53
2023-05-01T17:13:11.351Z,100952.81
2023-05-01T17:15:38.256Z,100955.84
2023-05-01T17:18:05.048Z,100949.53
2023-05-01T17:20:31.921Z,100954.22
2023-05-01T17:22:58.725Z,100955.34
2023-05-01T17:25:25.485Z,100953.91
2023-05-01T17:27:52.248Z,100958.81
2023-05-01T17:30:20.500Z,100956.50
2023-05-01T17:32:48.085Z,100955.06
2023-05-01T17:35:15.044Z,100963.78
2023-05-01T17:37:41.834Z,100956.19
2023-05-01T17:40:09.800Z,100956.63
2023-05-01T17:42:36.684Z,100959.81
2023-05-01T17:45:04.059Z,100959.44
2023-05-01T17:47:32.186Z,100956.06
2023-05-01T17:49:59.239Z,100956.50
2023-05-01T17:52:26.174Z,100952.25
2023-05-01T17:54:52.968Z,100951.81
2023-05-01T17:57:19.635Z,100952.91
2023-05-01T17:59:46.388Z,100950.56
2023-05-01T18:02:13.160Z,100948.03
2023-05-01T18:04:41.316Z,100942.13
2023-05-01T18:07:08.031Z,100950.53
2023-05-01T18:09:34.808Z,100951.78
2023-05-01T18:12:01.553Z,100953.47
2023-05-01T18:14:28.258Z,100951.06
2023-05-01T18:16:54.979Z,100952.53
2023-05-01T18:19:21.828Z,100946.59
2023-05-01T18:21:50.210Z,100949.94
2023-05-01T18:24:17.045Z,100956.66
2023-05-01T18:26:43.811Z,100951.75
2023-05-01T18:29:10.527Z,100951.47
2023-05-01T18:31:37.369Z,100952.91
2023-05-01T18:34:04.421Z,100956.00
2023-05-01T18:36:31.209Z,100953.59
2023-05-01T18:38:59.207Z,100960.47
2023-05-01T18:41:25.975Z,100956.41
2023-05-01T18:43:56.321Z,100963.25
2023-05-01T18:46:24.567Z,100958.16
2023-05-01T18:48:51.364Z,100963.28
2023-05-01T18:51:18.256Z,100963.63
2023-05-01T18:53:44.990Z,100969.25
2023-05-01T18:56:13.168Z,100967.66
2023-05-01T18:58:39.887Z,100971.56
2023-05-01T19:01:06.898Z,100966.88
2023-05-01T19:03:33.779Z,100965.94
2023-05-01T19:06:00.655Z,100965.03
2023-05-01T19:08:27.448Z,100969.59
2023-05-01T19:10:54.137Z,100962.31
2023-05-01T19:13:22.388Z,100966.03
2023-05-01T19:15:49.151Z,100976.22
2023-05-01T19:18:16.063Z,100968.97
2023-05-01T19:20:42.883Z,100969.94
2023-05-01T19:23:09.676Z,100974.47
2023-05-01T19:25:36.532Z,100974.56
2023-05-01T19:28:03.497Z,100978.25
2023-05-01T19:30:31.796Z,100978.13
2023-05-01T19:32:58.596Z,100974.44
2023-05-01T19:35:25.621Z,100974.34
2023-05-01T19:37:54.511Z,100974.41
2023-05-01T19:40:21.413Z,100976.88
2023-05-01T19:42:48.144Z,100972.16
2023-05-01T19:45:17.641Z,100970.16
2023-05-01T19:47:46.216Z,100980.81
2023-05-01T19:50:13.053Z,100979.66
2023-05-01T19:52:40.166Z,100973.22
2023-05-01T19:55:07.873Z,100980.28
2023-05-01T19:57:34.650Z,100976.41
2023-05-01T20:00:02.641Z,100978.00
2023-05-01T20:02:29.514Z,100969.50
2023-05-01T20:04:57.677Z,100971.94
2023-05-01T20:07:24.350Z,100969.78
2023-05-01T20:09:50.961Z,100966.53
2023-05-01T20:12:17.628Z,100971.50
2023-05-01T20:14:44.553Z,100977.50
2023-05-01T20:17:11.307Z,100973.44
2023-05-01T20:19:39.320Z,100971.28
2023-05-01T20:22:08.034Z,100978.97
2023-05-01T20:24:34.628Z,100980.34
2023-05-01T20:27:02.867Z,100976.28
2023-05-01T20:29:29.706Z,100974.94
2023-05-01T20:31:56.330Z,100979.06
2023-05-01T20:34:23.421Z,100973.13
2023-05-01T20:36:50.348Z,100977.03
2023-05-01T20:39:18.540Z,100979.28
2023-05-01T20:41:45.251Z,100977.09
2023-05-01T20:44:11.838Z,100977.44
2023-05-01T20:46:38.544Z,100974.91
2023-05-01T20:49:05.455Z,100976.28
2023-05-01T20:51:32.139Z,100977.31
2023-05-01T20:53:58.775Z,100977.66
2023-05-01T20:56:26.946Z,100981.41
2023-05-01T20:58:53.618Z,100982.63
2023-05-01T21:01:20.326Z,100981.94
2023-05-01T21:03:47.210Z,100985.03
2023-05-01T21:06:13.979Z,100983.69
2023-05-01T21:08:40.764Z,100983.19
2023-05-01T21:11:07.432Z,100981.66
2023-05-01T21:13:35.460Z,100981.00
2023-05-01T21:16:02.395Z,100979.47
2023-05-01T21:18:33.074Z,100980.84
2023-05-01T21:21:01.865Z,100976.63
2023-05-01T21:23:29.837Z,100985.97
2023-05-01T21:25:56.596Z,100985.31
2023-05-01T21:28:23.397Z,100991.13
2023-05-01T21:30:51.654Z,100995.88
2023-05-01T21:33:18.802Z,100987.22
2023-05-01T21:35:46.301Z,100990.28
2023-05-01T21:38:12.973Z,100999.66
2023-05-01T21:40:42.625Z,100999.00
2023-05-01T21:43:09.634Z,100998.31
2023-05-01T21:45:36.403Z,100995.75
2023-05-01T21:48:04.908Z,100996.94
2023-05-01T21:50:35.709Z,100997.97
2023-05-01T21:53:02.925Z,101004.63
2023-05-01T21:55:30.853Z,101002.22
2023-05-01T21:57:58.084Z,101007.00
2023-05-01T22:00:24.805Z,101010.09
2023-05-01T22:02:51.832Z,101008.75
2023-05-01T22:05:21.788Z,101003.59
2023-05-01T22:07:48.819Z,101003.94
2023-05-01T22:10:16.889Z,101001.72
2023-05-01T22:12:44.398Z,101008.38
2023-05-01T22:15:12.848Z,101014.16
2023-05-01T22:17:40.537Z,101012.63
2023-05-01T22:20:08.221Z,101012.13
2023-05-01T22:22:37.762Z,101015.16
2023-05-01T22:25:05.283Z,101012.81
2023-05-01T22:27:31.953Z,101014.84
2023-05-01T22:29:58.854Z,101008.72
2023-05-01T22:32:25.686Z,101015.38
2023-05-01T22:34:52.381Z,101011.09
2023-05-01T22:37:19.014Z,101007.72
2023-05-01T22:39:47.029Z,101009.75
2023-05-01T22:42:13.603Z,101013.47
2023-05-01T22:44:40.193Z,101020.97
2023-05-01T22:47:06.824Z,101013.16
2023-05-01T22:49:33.395Z,101010.75
2023-05-01T22:51:59.934Z,101018.25
2023-05-01T22:54:26.564Z,101012.13
2023-05-01T22:56:54.577Z,101016.91
2023-05-01T22:59:21.704Z,101018.91
2023-05-01T23:01:48.676Z,101012.81
2023-05-01T23:04:15.525Z,101014.69
2023-05-01T23:06:42.822Z,101014.13
2023-05-01T23:09:09.470Z,101018.75
2023-05-01T23:11:36.391Z,101010.91
2023-05-01T23:14:04.318Z,101018.22
2023-05-01T23:16:39.537Z,101021.13
2023-05-01T23:19:07.944Z,101016.84
2023-05-01T23:21:35.467Z,101013.47
2023-05-01T23:24:02.178Z,101019.22
2023-05-01T23:26:29.334Z,101015.84
2023-05-01T23:28:55.982Z,101015.13
2023-05-01T23:31:25.747Z,101017.19
2023-05-01T23:33:53.437Z,101014.81
2023-05-01T23:36:20.493Z,101015.13
2023-05-01T23:38:47.719Z,101019.19
2023-05-01T23:41:14.908Z,101011.53
2023-05-01T23:43:42.355Z,101011.03
2023-05-01T23:46:09.167Z,101011.38
2023-05-01T23:48:37.675Z,101011.66
2023-05-01T23:51:04.978Z,101017.44
2023-05-01T23:53:31.647Z,101017.94
2023-05-01T23:55:58.277Z,101007.56
2023-05-01T23:58:24.878Z,101013.34
